Time,TemperatureF,DewpointF,PressureIn,WindDirection,WindDirectionDegrees,WindSpeedMPH,WindSpeedGustMPH,Humidity,HourlyPrecipIn,Conditions,Clouds,dailyrainin,SoftwareType,DateUTC
2013-11-15 00:23:00,40.0,32.0,29.90,SSW,194,2.0,4.0,72,0.00,,,0.00,,2013-11-15 06:23:00,
2013-11-15 00:53:00,39.0,31.0,29.90,SSW,194,3.0,9.0,74,0.00,,,0.00,,2013-11-15 06:53:00,
2013-11-15 01:21:00,39.0,31.0,29.89,South,180,2.0,6.0,74,0.00,,,0.00,,2013-11-15 07:21:00,
2013-11-15 01:42:00,39.0,31.0,29.89,South,186,3.0,5.0,74,0.00,,,0.00,,2013-11-15 07:42:00,
2013-11-15 01:52:00,38.0,31.0,29.90,SSW,192,2.0,5.0,75,0.00,,,0.00,,2013-11-15 07:52:00,
2013-11-15 02:21:00,36.0,30.0,29.89,SSW,193,0.0,2.0,78,0.00,,,0.00,,2013-11-15 08:21:00,
2013-11-15 02:42:00,35.0,29.0,29.89,SSW,193,0.0,1.0,79,0.00,,,0.00,,2013-11-15 08:42:00,
2013-11-15 02:52:00,35.0,29.0,29.89,SSW,194,0.0,2.0,80,0.00,,,0.00,,2013-11-15 08:52:00,
2013-11-15 03:22:00,36.0,31.0,29.88,SSW,195,1.0,5.0,81,0.00,,,0.00,,2013-11-15 09:22:00,
2013-11-15 03:43:00,34.0,28.0,29.87,SSW,195,0.0,2.0,80,0.00,,,0.00,,2013-11-15 09:43:00,
2013-11-15 03:53:00,34.0,29.0,29.87,SSW,195,0.0,1.0,82,0.00,,,0.00,,2013-11-15 09:53:00,
2013-11-15 04:22:00,33.0,28.0,29.87,SSW,194,1.0,2.0,83,0.00,,,0.00,,2013-11-15 10:22:00,
2013-11-15 04:43:00,32.0,28.0,29.87,SSW,195,0.0,0.0,84,0.00,,,0.00,,2013-11-15 10:43:00,
2013-11-15 04:52:00,32.0,28.0,29.87,SSW,200,1.0,3.0,85,0.00,,,0.00,,2013-11-15 10:52:00,
2013-11-15 05:22:00,32.0,28.0,29.88,SSW,198,0.0,0.0,85,0.00,,,0.00,,2013-11-15 11:22:00,
2013-11-15 05:42:00,32.0,28.0,29.88,SSW,198,0.0,0.0,86,0.00,,,0.00,,2013-11-15 11:42:00,
2013-11-15 05:52:00,33.0,29.0,29.88,SSW,198,0.0,2.0,86,0.00,,,0.00,,2013-11-15 11:52:00,
2013-11-15 06:22:00,34.0,30.0,29.88,SSW,199,0.0,2.0,85,0.00,,,0.00,,2013-11-15 12:22:00,
2013-11-15 06:42:00,33.0,29.0,29.87,SSW,194,1.0,3.0,85,0.00,,,0.00,,2013-11-15 12:42:00,
2013-11-15 06:52:00,34.0,30.0,29.87,South,184,2.0,5.0,84,0.00,,,0.00,,2013-11-15 12:52:00,
2013-11-15 07:11:00,34.0,30.0,29.87,South,190,0.0,4.0,84,0.00,,,0.00,,2013-11-15 13:11:00,
2013-11-15 07:22:00,33.0,29.0,29.87,SSW,192,1.0,2.0,84,0.00,,,0.00,,2013-11-15 13:22:00,
2013-11-15 07:42:00,34.0,30.0,29.88,South,188,1.0,4.0,84,0.00,,,0.00,,2013-11-15 13:42:00,
2013-11-15 07:52:00,33.0,29.0,29.88,South,188,1.0,2.0,84,0.00,,,0.00,,2013-11-15 13:52:00,
2013-11-15 08:22:00,34.0,30.0,29.88,SSW,199,1.0,3.0,86,0.00,,,0.00,,2013-11-15 14:22:00,
2013-11-15 08:42:00,36.0,31.0,29.88,South,170,3.0,6.0,83,0.00,,,0.00,,2013-11-15 14:42:00,
2013-11-15 08:52:00,38.0,33.0,29.86,South,191,3.0,7.0,81,0.00,,,0.00,,2013-11-15 14:52:00,
2013-11-15 09:53:00,44.0,37.0,29.84,South,186,4.0,14.0,75,0.00,,,0.00,,2013-11-15 15:53:00,
2013-11-15 10:23:00,47.0,37.0,29.85,SSW,206,1.0,4.0,69,0.00,,,0.00,,2013-11-15 16:23:00,
2013-11-15 10:43:00,48.0,38.0,29.85,SSE,167,2.0,12.0,68,0.00,,,0.00,,2013-11-15 16:43:00,
2013-11-15 10:53:00,49.0,38.0,29.85,South,186,5.0,10.0,66,0.00,,,0.00,,2013-11-15 16:53:00,
2013-11-15 11:22:00,50.0,38.0,29.84,South,178,7.0,15.0,64,0.00,,,0.00,,2013-11-15 17:22:00,
2013-11-15 11:42:00,51.0,38.0,29.83,South,181,11.0,17.0,62,0.00,,,0.00,,2013-11-15 17:42:00,
2013-11-15 11:52:00,52.0,38.0,29.83,South,184,10.0,16.0,59,0.00,,,0.00,,2013-11-15 17:52:00,
2013-11-15 12:22:00,53.0,38.0,29.81,South,175,9.0,16.0,57,0.00,,,0.00,,2013-11-15 18:22:00,
2013-11-15 12:42:00,54.0,39.0,29.80,SW,215,5.0,11.0,57,0.00,,,0.00,,2013-11-15 18:42:00,
2013-11-15 12:52:00,56.0,40.0,29.79,South,182,3.0,14.0,55,0.00,,,0.00,,2013-11-15 18:52:00,
2013-11-15 13:12:00,58.0,41.0,29.79,South,175,5.0,14.0,53,0.00,,,0.00,,2013-11-15 19:12:00,
2013-11-15 13:21:00,57.0,40.0,29.78,South,171,8.0,18.0,53,0.00,,,0.00,,2013-11-15 19:21:00,
2013-11-15 13:42:00,58.0,40.0,29.77,South,180,10.0,18.0,51,0.00,,,0.00,,2013-11-15 19:42:00,
2013-11-15 13:52:00,59.0,41.0,29.75,South,184,9.0,16.0,51,0.00,,,0.00,,2013-11-15 19:52:00,
2013-11-15 14:12:00,59.0,41.0,29.73,SSE,165,13.0,17.0,51,0.00,,,0.00,,2013-11-15 20:12:00,
2013-11-15 14:22:00,59.0,41.0,29.73,SSE,165,13.0,17.0,51,0.00,,,0.00,,2013-11-15 20:22:00,
2013-11-15 14:32:00,59.0,41.0,29.73,SSE,165,13.0,17.0,51,0.00,,,0.00,,2013-11-15 20:32:00,
2013-11-15 15:21:00,58.0,41.0,29.69,South,171,7.0,17.0,53,0.00,,,0.00,,2013-11-15 21:21:00,
2013-11-15 15:43:00,58.0,40.0,29.69,SSW,199,12.0,22.0,52,0.00,,,0.00,,2013-11-15 21:43:00,
2013-11-15 15:54:00,58.0,41.0,29.67,South,169,12.0,21.0,53,0.00,,,0.00,,2013-11-15 21:54:00,
2013-11-15 16:24:00,57.0,41.0,29.66,SSW,207,11.0,20.0,54,0.00,,,0.00,,2013-11-15 22:24:00,
2013-11-15 16:43:00,58.0,41.0,29.66,SSW,194,12.0,26.0,53,0.00,,,0.00,,2013-11-15 22:43:00,
2013-11-15 16:53:00,57.0,41.0,29.65,South,188,13.0,21.0,54,0.00,,,0.00,,2013-11-15 22:53:00,
2013-11-15 17:22:00,57.0,41.0,29.63,SSW,194,11.0,20.0,54,0.00,,,0.00,,2013-11-15 23:22:00,
2013-11-15 17:52:00,56.0,41.0,29.64,SSW,198,1.0,9.0,57,0.00,,,0.00,,2013-11-15 23:52:00,
2013-11-15 18:22:00,54.0,41.0,29.64,South,184,3.0,7.0,62,0.00,,,0.00,,2013-11-16 00:22:00,
2013-11-15 18:42:00,52.0,41.0,29.64,South,184,2.0,6.0,65,0.00,,,0.00,,2013-11-16 00:42:00,
2013-11-15 18:52:00,52.0,41.0,29.64,South,183,3.0,5.0,67,0.00,,,0.00,,2013-11-16 00:52:00,
2013-11-15 19:12:00,51.0,42.0,29.65,South,187,3.0,6.0,70,0.00,,,0.00,,2013-11-16 01:12:00,
2013-11-15 19:21:00,51.0,42.0,29.64,South,178,3.0,5.0,72,0.00,,,0.00,,2013-11-16 01:21:00,
2013-11-15 19:42:00,49.0,41.0,29.64,SSE,148,5.0,6.0,74,0.00,,,0.00,,2013-11-16 01:42:00,
2013-11-15 19:52:00,50.0,43.0,29.64,SSE,167,3.0,7.0,76,0.00,,,0.00,,2013-11-16 01:52:00,
2013-11-15 20:22:00,53.0,45.0,29.62,South,173,5.0,12.0,73,0.00,,,0.00,,2013-11-16 02:22:00,
2013-11-15 20:42:00,54.0,45.0,29.62,South,173,10.0,19.0,72,0.00,,,0.00,,2013-11-16 02:42:00,
2013-11-15 20:52:00,54.0,45.0,29.62,SSW,196,12.0,16.0,72,0.00,,,0.00,,2013-11-16 02:52:00,
2013-11-15 21:22:00,55.0,47.0,29.62,South,175,10.0,21.0,73,0.00,,,0.00,,2013-11-16 03:22:00,
2013-11-15 21:44:00,55.0,47.0,29.62,South,169,14.0,23.0,73,0.00,,,0.00,,2013-11-16 03:44:00,
2013-11-15 21:54:00,55.0,47.0,29.61,SSW,213,16.0,28.0,73,0.00,,,0.00,,2013-11-16 03:54:00,
2013-11-15 22:23:00,55.0,46.0,29.60,South,183,14.0,23.0,72,0.00,,,0.00,,2013-11-16 04:23:00,
2013-11-15 22:43:00,55.0,46.0,29.59,South,173,16.0,31.0,72,0.00,,,0.00,,2013-11-16 04:43:00,
2013-11-15 22:53:00,55.0,46.0,29.59,SSE,159,13.0,27.0,72,0.00,,,0.00,,2013-11-16 04:53:00,
2013-11-15 23:23:00,55.0,47.0,29.58,South,180,14.0,29.0,73,0.00,,,0.00,,2013-11-16 05:23:00,
2013-11-15 23:43:00,55.0,47.0,29.57,South,187,17.0,26.0,74,0.00,,,0.00,,2013-11-16 05:43:00,
2013-11-15 23:52:00,54.0,46.0,29.57,SSE,168,12.0,24.0,75,0.00,,,0.00,,2013-11-16 05:52:00,